• Join FlightAware (Why Join?)
  • Login
  • US Flag 
12:12AM EDT


 

Airport Tracker/Info


-or-


 

Live Flight TrackerFlight Track Log ✈ N745VJ ✈ 26-Apr-2013 ✈ KCLT - KPWM

Flight Track Log - Related Links

Times and Time Zones

All times are in EDT time to prevent confusion due to time zone crossing. See the N745VJ flight status page for this flight to view local times or setup timezone preferences in your user account.

Time Position Orientation Groundspeed Altitude Reporting Facility
EDT Latitude Longitude Course Direction KTS MPH feet Rate Location/Type
06:37PM 35.1908 -80.9356 72° East 165 190 1,600  Level Atlanta Center
06:38PM 35.1122 -80.8853 152° Southeast 273 314 4,800 2,520 Climbing Atlanta Center
06:39PM 35.1318 -80.6122 29° Northeast  Level FlightAware Approximate
06:39PM 35.0936 -80.8072 106° East 269 310 7,600  Level Atlanta Center
06:40PM 35.2345 -80.5420 30° Northeast  Level FlightAware Approximate
06:40PM 35.1078 -80.7078 80° East 287 330 8,000  Level Atlanta Center
06:41PM 35.3256 -80.4667 North  Level FlightAware Approximate
06:41PM 35.1347 -80.6281 68° East 289 333 10,100  Level Atlanta Center
06:42PM 35.3672 -80.3385 72° East  Level FlightAware Approximate
06:42PM 35.1906 -80.5417 52° Northeast 317 365 12,100  Level Atlanta Center
06:43PM 35.2525 -80.4450 52° Northeast 348 400 14,400 2,100 Climbing Atlanta Center
06:46PM 35.4061 -80.1917 53° Northeast 403 464 19,300 1,980 Climbing Washington Center
06:47PM 35.4594 -80.0494 65° Northeast 408 470 21,300 1,920 Climbing Washington Center
06:48PM 35.4942 -79.9033 74° East 421 484 23,200 1,800 Climbing Washington Center
06:49PM 35.5328 -79.7550 72° East 437 503 24,900 1,680 Climbing Washington Center
06:50PM 35.5714 -79.6011 73° East 456 525 26,600 1,560 Climbing Washington Center
06:51PM 35.6119 -79.4447 72° East 474 545 28,100 1,200 Climbing Washington Center
06:52PM 35.6689 -79.2992 64° Northeast 474 545 29,100 1,140 Climbing Washington Center
06:53PM 35.7278 -79.1486 64° Northeast 479 551 30,500 1,440 Climbing Washington Center
06:54PM 35.7906 -78.9950 63° Northeast 484 557 32,100 1,620 Climbing Washington Center
06:55PM 35.8772 -78.8808 47° Northeast 464 534 33,700 1,560 Climbing Washington Center
06:56PM 35.9756 -78.7900 37° Northeast 446 513 35,200 1,320 Climbing Washington Center
06:57PM 36.0739 -78.7042 35° Northeast 440 506 36,400 840 Climbing Washington Center
06:58PM 36.1681 -78.6125 38° Northeast 429 494 37,000 240 Climbing Washington Center
06:59PM 36.2600 -78.5261 37° Northeast 419 482 37,000  Level Washington Center
07:00PM 36.3558 -78.4394 36° Northeast 419 482 37,000  Level Washington Center
07:01PM 36.4519 -78.3497 37° Northeast 419 482 37,000  Level Washington Center
07:02PM 36.5458 -78.2600 38° Northeast 419 482 37,000  Level Washington Center
07:03PM 36.6417 -78.1728 36° Northeast 419 482 37,000  Level Washington Center
07:04PM 36.7311 -78.0850 38° Northeast 414 476 37,000  Level Washington Center
07:05PM 36.8247 -77.9972 37° Northeast 414 476 37,000  Level Washington Center
07:06PM 36.9183 -77.9039 39° Northeast 419 482 37,000  Level Washington Center
07:07PM 37.0117 -77.8158 37° Northeast 419 482 37,000  Level Washington Center
07:08PM 37.1072 -77.7275 36° Northeast 419 482 37,000  Level Washington Center
07:09PM 37.2028 -77.6361 37° Northeast 419 482 37,000  Level Washington Center
07:10PM 37.2981 -77.5447 37° Northeast 419 482 37,000  Level Washington Center
07:11PM 37.3933 -77.4531 37° Northeast 419 482 37,000  Level Washington Center
07:12PM 37.4908 -77.3586 38° Northeast 424 488 37,000  Level Washington Center
07:13PM 37.5881 -77.2639 38° Northeast 429 494 37,000  Level Washington Center
07:14PM 37.6853 -77.1689 38° Northeast 429 494 37,000  Level Washington Center
07:15PM 37.7825 -77.0736 38° Northeast 429 494 37,000  Level Washington Center
07:16PM 37.8775 -76.9808 38° Northeast 434 499 37,000  Level Washington Center
07:17PM 37.9744 -76.8853 38° Northeast 434 499 37,000  Level Washington Center
07:18PM 38.0692 -76.7892 39° Northeast 434 499 37,000  Level Washington Center
07:19PM 38.1661 -76.6931 38° Northeast 434 499 37,000  Level Washington Center
07:20PM 38.2628 -76.5967 38° Northeast 440 506 37,000  Level Washington Center
07:21PM 38.3553 -76.5053 38° Northeast 433 498 37,000  Level Washington Center
07:22PM 38.4519 -76.4108 37° Northeast 433 498 37,000  Level Washington Center
07:23PM 38.5464 -76.3164 38° Northeast 433 498 37,000  Level Washington Center
07:24PM 38.6428 -76.2164 39° Northeast 438 504 37,000 -60 Level Washington Center
07:25PM 38.7453 -76.1186 37° Northeast 443 510 36,900 -60 Descending Washington Center
07:26PM 38.8397 -76.0208 39° Northeast 443 510 36,900  Level Washington Center
07:27PM 38.9378 -75.9253 37° Northeast 443 510 37,000  Climbing Washington Center
07:28PM 39.0361 -75.8242 39° Northeast 443 510 37,000 -60 Level Washington Center
07:29PM 39.1322 -75.7228 39° Northeast 443 510 36,900 -60 Descending Washington Center
07:30PM 39.2322 -75.6236 38° Northeast 443 510 36,900  Level Washington Center
07:31PM 39.3281 -75.5217 39° Northeast 443 510 37,000  Climbing Washington Center
07:32PM 39.4258 -75.4197 39° Northeast 443 510 37,000  Level Washington Center
07:33PM 39.5236 -75.3172 39° Northeast 443 510 37,000 -60 Level Washington Center
07:34PM 39.6214 -75.2169 38° Northeast 443 510 36,900  Descending Washington Center
07:36PM 39.8056 -75.0189 40° Northeast 441 507 37,000  Climbing New York Center
07:37PM 39.9031 -74.9192 38° Northeast 446 513 37,000  Level New York Center
07:38PM 40.0036 -74.7842 46° Northeast 446 513 37,100  Climbing New York Center
07:39PM 40.0911 -74.6589 48° Northeast 462 532 37,000 -60 Descending New York Center
07:40PM 40.1767 -74.5333 48° Northeast 462 532 37,000  Level New York Center
07:41PM 40.2697 -74.4214 43° Northeast 457 526 37,000  Level New York Center
07:42PM 40.3686 -74.3178 39° Northeast 447 514 37,000  Level New York Center
07:43PM 40.5414 -74.1306 39° Northeast 450 518 37,000  Level Boston Center
07:44PM 40.6408 -74.0236 39° Northeast 455 524 37,000  Level Boston Center
07:45PM 40.7317 -73.9300 38° Northeast 455 524 37,000  Level Boston Center
07:46PM 40.8272 -73.7950 47° Northeast 455 524 37,000  Level Boston Center
07:47PM 40.8975 -73.6456 58° Northeast 463 533 37,000 -420 Level Boston Center
07:48PM 40.9700 -73.5011 56° Northeast 468 539 36,200 -960 Descending Boston Center
07:49PM 41.0461 -73.3619 54° Northeast 468 539 35,100 -1,020 Descending Boston Center
07:50PM 41.1075 -73.2333 58° Northeast 463 533 34,200 -600 Descending Boston Center
07:51PM 41.1794 -73.0881 57° Northeast 463 533 34,000 -120 Descending Boston Center
07:52PM 41.2467 -72.9481 57° Northeast 463 533 34,000  Level Boston Center
07:53PM 41.3225 -72.7856 58° Northeast 463 533 34,000  Level Boston Center
07:54PM 41.3894 -72.6367 59° Northeast 463 533 34,000 -480 Level Boston Center
07:55PM 41.4667 -72.5039 52° Northeast 463 533 33,100 -1,080 Descending Boston Center
07:56PM 41.5272 -72.3958 53° Northeast 452 520 31,900 -1,080 Descending Boston Center
07:57PM 41.6125 -72.2514 52° Northeast 447 514 31,000 -480 Descending Boston Center
07:58PM 41.6892 -72.1119 54° Northeast 457 526 31,000  Level Boston Center
07:59PM 41.7681 -71.9781 52° Northeast 457 526 31,000  Level Boston Center
08:00PM 41.8444 -71.8408 53° Northeast 457 526 31,000 -240 Level Boston Center
08:01PM 41.9186 -71.7036 54° Northeast 457 526 30,600 -960 Descending Boston Center
08:02PM 42.0011 -71.5656 51° Northeast 462 532 29,100 -1,560 Descending Boston Center
08:03PM 42.0894 -71.4189 51° Northeast 462 532 27,500 -1,140 Descending Boston Center
08:04PM 42.1611 -71.2833 54° Northeast 462 532 26,900 -660 Descending Boston Center
08:05PM 42.2347 -71.1475 54° Northeast 457 526 26,200 -1,140 Descending Boston Center
08:06PM 42.3061 -71.0197 53° Northeast 452 520 24,700 -1,140 Descending Boston Center
08:07PM 42.3772 -70.8886 54° Northeast 440 506 24,000 -360 Descending Boston Center
08:08PM 42.4403 -70.7775 52° Northeast 429 494 24,000 -600 Level Boston Center
08:09PM 42.5436 -70.7125 25° Northeast 399 459 22,900 -1,500 Descending Boston Center
08:10PM 42.6636 -70.6500 21° North 399 459 21,000 -1,920 Descending Boston Center
08:12PM 42.7792 -70.5789 24° Northeast 386 444 18,700 -1,680 Descending Boston Center
08:13PM 42.8781 -70.5161 25° Northeast 381 438 17,400 -1,740 Descending Boston Center
08:14PM 42.9689 -70.4625 23° Northeast 373 429 15,300 -2,040 Descending Boston Center
08:15PM 43.0594 -70.3942 29° Northeast 363 418 13,400 -1,980 Descending Boston Center
08:16PM 43.1414 -70.3231 32° Northeast 352 405 11,400 -1,440 Descending Boston Center
08:17PM 43.2147 -70.3347 353° North 304 350 10,600 -1,380 Descending Boston Center
08:18PM 43.2922 -70.3692 342° North 269 310 8,700 -1,860 Descending Boston Center
08:19PM 43.3575 -70.3983 342° North 269 310 6,900 -2,040 Descending Boston Center
08:20PM 43.4353 -70.4358 341° North 269 310 4,700 -2,040 Descending Boston Center
08:21PM 43.4942 -70.4625 342° North 264 304 2,900 -1,380 Descending Boston Center
08:22PM 43.5614 -70.4917 343° North 239 275 2,000 -480 Descending Boston Center
08:23PM 43.6053 -70.5019 350° North 194 223 2,000  Level Boston Center